Time;durP1;ratioP1;P1;durP2;ratioP2;P2;SDS_P1;SDS_P2;PMS_P1;PMS_P2;Temp;Humidity;BMP_temperature;BMP_pressure;BME280_temperature;BME280_humidity;BME280_pressure;Samples;Min_cycle;Max_cycle;Signal;HPM_P1;HPM_P2
2021/05/31 00:00:37;;;;;;;13.05;8.02;;;;;;;17.32;53.03;101709.59;3538789;40;20426;-74
2021/05/31 00:03:05;;;;;;;12.55;8.05;;;;;;;17.29;51.80;101711.50;3556283;40;20049;-75
2021/05/31 00:05:32;;;;;;;12.95;8.55;;;;;;;17.24;53.00;101708.16;3534138;40;20054;-75
2021/05/31 00:08:00;;;;;;;8.00;4.63;;;;;;;17.20;52.13;101704.75;3538835;40;20066;-75
2021/05/31 00:10:27;;;;;;;10.75;6.45;;;;;;;17.18;53.04;101703.91;3556189;40;20085;-75
2021/05/31 00:12:54;;;;;;;14.07;9.73;;;;;;;17.14;54.07;101696.19;3544085;40;20046;-75
2021/05/31 00:15:23;;;;;;;15.73;9.63;;;;;;;17.10;53.18;101691.00;3547026;40;20139;-75
2021/05/31 00:17:52;;;;;;;15.93;9.73;;;;;;;17.08;53.92;101697.22;3552815;40;20058;-75
2021/05/31 00:20:18;;;;;;;;;;;;;;;17.05;49.40;101689.44;3547594;40;20403;-75
2021/05/31 00:22:46;;;;;;;12.65;7.55;;;;;;;17.01;52.68;101685.16;3543487;40;19942;-74
2021/05/31 00:25:13;;;;;;;;;;;;;;;16.99;49.00;101692.28;3544017;40;20069;-75
2021/05/31 00:27:42;;;;;;;13.80;8.60;;;;;;;16.93;53.49;101682.81;3551979;40;20018;-75
2021/05/31 00:30:11;;;;;;;15.18;9.60;;;;;;;16.91;53.84;101683.75;3540606;40;20042;-75
2021/05/31 00:32:39;;;;;;;13.48;8.40;;;;;;;16.83;53.47;101682.25;3533272;40;20084;-75
2021/05/31 00:35:08;;;;;;;11.93;7.82;;;;;;;16.81;52.77;101688.47;3536908;40;20086;-75
2021/05/31 00:37:37;;;;;;;9.05;5.50;;;;;;;16.75;52.34;101684.25;3532751;40;20047;-74
2021/05/31 00:40:06;;;;;;;15.43;10.35;;;;;;;16.71;53.87;101676.47;3548385;40;20771;-75
2021/05/31 00:42:34;;;;;;;15.00;9.82;;;;;;;16.63;53.24;101668.81;3540250;40;20109;-74
2021/05/31 00:45:05;;;;;;;16.13;9.90;;;;;;;16.60;53.27;101679.44;3538453;40;20152;-75
2021/05/31 00:47:35;;;;;;;14.40;8.95;;;;;;;16.54;53.36;101669.09;3544721;40;20860;-75
2021/05/31 00:50:04;;;;;;;15.68;9.27;;;;;;;16.53;53.69;101667.38;3542578;40;20058;-75
2021/05/31 00:52:34;;;;;;;14.90;9.27;;;;;;;16.49;53.49;101661.34;3541845;40;20793;-75
2021/05/31 00:55:04;;;;;;;13.73;8.50;;;;;;;16.45;53.98;101658.84;3530783;40;20541;-75
2021/05/31 00:57:31;;;;;;;14.98;9.52;;;;;;;16.40;54.35;101660.75;3543758;40;20054;-75
2021/05/31 00:59:58;;;;;;;16.10;10.10;;;;;;;16.34;54.39;101651.28;3549264;40;20410;-75
2021/05/31 01:02:27;;;;;;;14.27;8.60;;;;;;;16.32;54.42;101653.97;3554262;40;20062;-75
2021/05/31 01:04:54;;;;;;;14.10;8.63;;;;;;;16.30;54.05;101654.91;3547815;40;20289;-75
2021/05/31 01:07:59;;;;;;;15.63;9.40;;;;;;;16.26;53.54;101648.88;3554627;40;20131;-75
2021/05/31 01:10:38;;;;;;;13.15;8.85;;;;;;;16.21;54.60;101640.25;3530828;40;20417;-75
2021/05/31 01:13:40;;;;;;;15.20;10.05;;;;;;;16.18;52.19;101640.34;3539744;40;20078;-75
2021/05/31 01:16:23;;;;;;;12.13;7.30;;;;;;;16.10;52.57;101639.72;3551564;40;20070;-75
2021/05/31 01:18:51;;;;;;;14.75;9.23;;;;;;;16.06;55.05;101638.09;3542517;40;20077;-75
2021/05/31 01:21:44;;;;;;;11.77;7.18;;;;;;;16.05;53.31;101636.38;3550709;40;20058;-75
2021/05/31 01:24:29;;;;;;;14.52;8.63;;;;;;;15.99;54.74;101636.56;3539607;40;20062;-75
2021/05/31 01:27:16;;;;;;;15.63;9.68;;;;;;;15.93;53.19;101631.47;3537853;40;20854;-75
2021/05/31 01:29:58;;;;;;;13.85;8.88;;;;;;;15.91;53.94;101634.13;3542590;40;20066;-74
2021/05/31 01:32:39;;;;;;;16.10;10.18;;;;;;;15.89;53.29;101632.47;3541080;40;20114;-75
2021/05/31 01:35:10;;;;;;;15.80;9.23;;;;;;;15.84;55.36;101629.97;3542197;40;20809;-75
2021/05/31 01:37:41;;;;;;;15.55;9.45;;;;;;;15.80;55.61;101626.56;3555618;40;20118;-74
2021/05/31 01:40:12;;;;;;;15.88;9.43;;;;;;;15.75;55.16;101631.09;3548788;40;20499;-75
2021/05/31 01:42:40;;;;;;;15.70;9.57;;;;;;;15.70;55.93;101619.84;3542273;40;20164;-74
2021/05/31 01:45:11;;;;;;;15.68;9.73;;;;;;;15.67;55.43;101614.69;3551883;40;20067;-75
2021/05/31 01:47:40;;;;;;;17.17;10.90;;;;;;;15.66;55.70;101620.84;3552802;40;20631;-75
2021/05/31 01:50:11;;;;;;;15.63;8.90;;;;;;;15.63;55.76;101620.94;3546721;40;20156;-74
2021/05/31 01:52:41;;;;;;;18.35;10.38;;;;;;;15.58;55.56;101618.41;3550642;40;20049;-75
2021/05/31 01:55:09;;;;;;;18.77;11.18;;;;;;;15.55;55.94;101612.34;3557903;40;20065;-75
2021/05/31 01:57:37;;;;;;;16.60;9.88;;;;;;;15.50;56.25;101603.72;3554433;40;20046;-75
2021/05/31 02:00:06;;;;;;;16.25;9.80;;;;;;;15.52;55.44;101615.09;3550753;40;20053;-75
2021/05/31 02:02:48;;;;;;;18.48;10.40;;;;;;;15.47;55.51;101609.09;3537380;40;20077;-75
2021/05/31 02:05:15;;;;;;;15.27;9.13;;;;;;;15.37;54.98;101595.31;3556246;40;20069;-74
2021/05/31 02:07:42;;;;;;;14.98;8.98;;;;;;;15.42;55.42;101605.72;3552251;40;20066;-75
2021/05/31 02:10:12;;;;;;;16.45;10.25;;;;;;;15.37;56.02;101597.09;3547892;40;20064;-75
2021/05/31 02:12:40;;;;;;;17.05;10.75;;;;;;;15.35;56.53;101598.88;3531926;40;20112;-75
2021/05/31 02:15:14;;;;;;;14.68;8.13;;;;;;;15.30;54.93;101596.38;3558527;40;20050;-76
2021/05/31 02:18:02;;;;;;;17.23;10.13;;;;;;;15.28;55.93;101601.69;3544148;40;20281;-75
2021/05/31 02:20:36;;;;;;;13.68;7.70;;;;;;;15.24;54.60;101602.69;3541957;40;20427;-75
2021/05/31 02:23:07;;;;;;;19.58;11.20;;;;;;;15.18;56.53;101592.34;3541982;40;20058;-74
2021/05/31 02:25:36;;;;;;;17.60;10.75;;;;;;;15.18;56.06;101596.75;3552814;40;20058;-75
2021/05/31 02:28:08;;;;;;;;;;;;;;;15.14;52.54;101595.94;3540515;40;20061;-75
2021/05/31 02:30:35;;;;;;;18.40;9.73;;;;;;;15.09;56.30;101592.59;3550920;40;20774;-74
2021/05/31 02:33:04;;;;;;;17.88;9.73;;;;;;;15.03;56.34;101587.50;3553805;40;20068;-75
2021/05/31 02:35:34;;;;;;;15.57;8.88;;;;;;;15.00;56.72;101583.19;3530037;40;20054;-75
2021/05/31 02:38:02;;;;;;;19.20;11.02;;;;;;;15.00;56.81;101582.31;3543327;40;20149;-75
2021/05/31 02:40:35;;;;;;;17.85;10.63;;;;;;;14.96;55.98;101581.53;3543524;40;20053;-74
2021/05/31 02:43:09;;;;;;;14.38;8.50;;;;;;;14.94;55.57;101582.47;3538742;40;20088;-75
2021/05/31 02:45:38;;;;;;;17.02;9.43;;;;;;;14.86;56.33;101572.19;3543734;40;20082;-75
2021/05/31 02:48:07;;;;;;;16.23;10.05;;;;;;;14.83;57.07;101568.75;3549369;40;20058;-74
2021/05/31 02:50:34;;;;;;;17.95;10.00;;;;;;;14.80;56.63;101567.09;3547096;40;20084;-75
2021/05/31 02:53:02;;;;;;;19.13;10.30;;;;;;;14.81;57.34;101576.69;3549436;40;20067;-75
2021/05/31 02:55:31;;;;;;;16.15;8.98;;;;;;;14.77;57.34;101570.63;3544381;40;20107;-75
2021/05/31 02:58:00;;;;;;;14.95;8.40;;;;;;;14.74;56.77;101573.34;3534417;40;20139;-75
2021/05/31 03:00:28;;;;;;;16.35;9.75;;;;;;;14.69;56.81;101564.72;3553225;40;20066;-75
2021/05/31 03:02:56;;;;;;;18.27;9.90;;;;;;;14.69;56.97;101566.47;3543574;40;20049;-75
2021/05/31 03:05:26;;;;;;;;;;;;;;;14.67;53.54;101563.91;3556094;40;20150;-75
2021/05/31 03:07:57;;;;;;;15.23;8.80;;;;;;;14.60;57.07;101559.72;3557938;40;19949;-75
2021/05/31 03:10:25;;;;;;;16.95;10.13;;;;;;;14.60;58.34;101562.34;3547114;40;20115;-75
2021/05/31 03:12:54;;;;;;;12.05;6.80;;;;;;;14.55;57.04;101556.34;3556029;40;20058;-75
2021/05/31 03:15:22;;;;;;;16.45;9.25;;;;;;;14.50;58.14;101556.44;3553313;40;20070;-75
2021/05/31 03:17:52;;;;;;;15.93;10.00;;;;;;;14.51;58.28;101560.81;3555106;40;20082;-75
2021/05/31 03:20:23;;;;;;;16.35;9.35;;;;;;;14.46;58.69;101560.03;3546367;40;20094;-75
2021/05/31 03:22:54;;;;;;;16.30;8.85;;;;;;;14.44;58.38;101563.56;3557971;40;20140;-75
2021/05/31 03:25:24;;;;;;;17.75;10.15;;;;;;;14.41;58.07;101550.53;3540786;40;20129;-75
2021/05/31 03:27:53;;;;;;;18.13;10.15;;;;;;;14.34;59.51;101541.06;3541221;40;20084;-75
2021/05/31 03:30:20;;;;;;;15.73;8.80;;;;;;;14.38;59.69;101555.84;3552600;40;20053;-74
2021/05/31 03:32:48;;;;;;;17.65;9.75;;;;;;;14.33;59.60;101544.59;3555626;40;20049;-74
2021/05/31 03:35:16;;;;;;;;;;;;;;;14.37;55.12;101554.13;3561630;40;20045;-75
2021/05/31 03:37:44;;;;;;;12.68;6.68;;;;;;;14.34;59.86;101549.78;3561506;40;20255;-75
2021/05/31 03:40:15;;;;;;;17.63;10.52;;;;;;;14.34;59.64;101555.06;3546377;40;20143;-75
2021/05/31 03:42:44;;;;;;;17.80;9.88;;;;;;;14.31;59.60;101549.88;3534949;40;20174;-75
2021/05/31 03:45:12;;;;;;;15.43;9.48;;;;;;;14.27;59.55;101541.22;3548918;40;20100;-75
2021/05/31 03:47:39;;;;;;;16.45;9.75;;;;;;;14.28;58.81;101556.06;3547522;40;20085;-75
2021/05/31 03:50:07;;;;;;;18.15;10.05;;;;;;;14.25;59.21;101540.41;3547233;40;20065;-75
2021/05/31 03:52:44;;;;;;;14.82;9.15;;;;;;;14.25;57.90;101545.66;3550477;40;20053;-74
2021/05/31 03:55:12;;;;;;;18.20;10.07;;;;;;;14.19;59.43;101535.31;3544245;40;21389;-74
2021/05/31 03:57:42;;;;;;;15.50;8.10;;;;;;;14.21;58.30;101532.63;3557545;40;21642;-75
2021/05/31 04:00:11;;;;;;;17.00;9.95;;;;;;;14.16;59.19;101538.00;3536654;40;20066;-75
2021/05/31 04:02:41;;;;;;;18.42;10.20;;;;;;;14.17;58.97;101530.97;3554729;40;20053;-75
2021/05/31 04:05:13;;;;;;;16.98;10.32;;;;;;;14.16;58.87;101530.09;3551347;40;20445;-74
2021/05/31 04:13:15;;;;;;;15.02;8.68;;;;;;;14.03;59.16;101510.28;3547039;40;20069;-75
2021/05/31 04:15:44;;;;;;;16.50;9.67;;;;;;;14.02;58.37;101516.44;3551550;40;20079;-75
2021/05/31 04:18:11;;;;;;;16.08;9.65;;;;;;;14.01;58.61;101509.47;3555003;40;20073;-75
2021/05/31 04:20:38;;;;;;;16.48;9.80;;;;;;;13.98;58.93;101510.38;3556389;40;20458;-75
2021/05/31 04:23:05;;;;;;;13.53;8.23;;;;;;;13.95;58.50;101514.88;3562782;40;20069;-75
2021/05/31 04:25:33;;;;;;;14.20;8.13;;;;;;;13.95;58.61;101514.88;3537959;40;20073;-74
2021/05/31 04:28:00;;;;;;;;;;;;;;;13.95;55.43;101514.88;3562412;40;20073;-74
2021/05/31 04:30:27;;;;;;;17.60;9.57;;;;;;;13.87;58.87;101507.16;3540538;40;19945;-75
2021/05/31 04:32:55;;;;;;;16.48;9.77;;;;;;;13.89;59.44;101509.75;3556553;40;20445;-75
2021/05/31 04:35:26;;;;;;;;;;;;;;;13.91;55.65;101513.22;3557511;40;20085;-75
2021/05/31 04:37:56;;;;;;;16.67;9.27;;;;;;;13.86;59.65;101509.84;3547267;40;19961;-75
2021/05/31 04:40:24;;;;;;;16.08;9.35;;;;;;;13.86;60.51;101520.34;3554108;40;20466;-75
2021/05/31 04:42:52;;;;;;;14.23;7.85;;;;;;;13.85;59.65;101518.63;3546643;40;20509;-75
2021/05/31 04:45:20;;;;;;;;;;;;;;;13.86;56.00;101520.34;3537767;40;20054;-75
2021/05/31 04:47:49;;;;;;;13.90;8.40;;;;;;;13.80;60.26;101512.59;3563028;40;19945;-75
2021/05/31 04:50:16;;;;;;;10.68;6.47;;;;;;;13.77;60.28;101522.25;3541990;40;20080;-75
2021/05/31 04:52:43;;;;;;;13.35;6.88;;;;;;;13.72;61.11;101507.50;3553734;40;20128;-75
2021/05/31 04:55:15;;;;;;;15.20;9.25;;;;;;;13.72;61.73;101512.75;3554677;40;20057;-75
2021/05/31 04:57:44;;;;;;;16.40;10.15;;;;;;;13.67;62.22;101502.38;3553095;40;20431;-75
2021/05/31 05:00:14;;;;;;;14.88;8.93;;;;;;;13.68;62.34;101509.34;3551300;40;20054;-75
2021/05/31 05:02:41;;;;;;;14.80;9.18;;;;;;;13.65;62.47;101501.56;3544737;40;20074;-75
2021/05/31 05:05:11;;;;;;;14.53;8.70;;;;;;;13.68;61.78;101509.34;3557846;40;20046;-75
2021/05/31 05:07:45;;;;;;;14.68;8.70;;;;;;;13.69;62.79;101512.84;3555862;40;20061;-74
2021/05/31 05:10:19;;;;;;;15.90;9.38;;;;;;;13.75;61.89;101507.47;3545166;40;20049;-74
2021/05/31 05:12:48;;;;;;;21.10;12.00;;;;;;;13.76;62.96;101509.19;3550688;40;20072;-75
2021/05/31 05:15:16;;;;;;;17.25;10.73;;;;;;;13.75;63.45;101500.44;3552591;40;20119;-75
2021/05/31 05:17:45;;;;;;;16.73;9.73;;;;;;;13.77;62.38;101490.75;3539455;40;20058;-75
2021/05/31 05:20:20;;;;;;;17.40;10.95;;;;;;;13.84;62.55;101498.47;3543608;40;20058;-74
2021/05/31 05:22:47;;;;;;;13.10;7.93;;;;;;;13.83;63.02;101494.13;3530962;40;20085;-75
2021/05/31 05:25:15;;;;;;;16.57;9.40;;;;;;;13.89;63.28;101494.00;3549791;40;20060;-76
2021/05/31 05:27:49;;;;;;;17.83;10.77;;;;;;;13.93;63.16;101487.75;3554993;40;20339;-76
2021/05/31 05:30:23;;;;;;;20.05;11.30;;;;;;;13.98;64.17;101485.91;3549719;40;20046;-75
2021/05/31 05:33:02;;;;;;;21.40;12.20;;;;;;;14.02;63.74;101484.94;3538515;40;20423;-75
2021/05/31 05:35:37;;;;;;;20.08;11.25;;;;;;;14.06;64.51;101476.06;3531519;40;20093;-75
2021/05/31 05:38:35;;;;;;;22.00;12.40;;;;;;;14.08;65.42;101479.50;3545576;40;20136;-75
2021/05/31 05:49:03;;;;;;;20.63;11.77;;;;;;;14.31;64.42;101475.47;3545269;40;20148;-75
2021/05/31 05:51:31;;;;;;;18.92;11.55;;;;;;;14.34;64.98;101464.84;3547496;40;20054;-75
2021/05/31 05:54:02;;;;;;;;;;;;;;;14.42;60.19;101473.41;3546327;40;20387;-75
2021/05/31 05:56:29;;;;;;;21.40;11.93;;;;;;;14.36;65.56;101458.69;3544077;40;19958;-75
2021/05/31 05:58:58;;;;;;;20.27;12.13;;;;;;;14.44;65.32;101467.19;3551090;40;20061;-75
2021/05/31 06:01:25;;;;;;;21.00;12.20;;;;;;;14.50;64.80;101476.75;3551526;40;20105;-75
2021/05/31 06:03:52;;;;;;;15.95;9.60;;;;;;;14.56;64.73;101476.56;3557973;40;20070;-74
2021/05/31 06:06:21;;;;;;;20.83;11.98;;;;;;;14.61;64.87;101479.94;3554119;40;20054;-75
2021/05/31 06:08:49;;;;;;;16.50;9.50;;;;;;;14.65;65.09;101481.59;3538886;40;20061;-75
2021/05/31 06:11:15;;;;;;;14.85;9.48;;;;;;;14.69;65.96;101483.22;3544920;40;20712;-75
2021/05/31 06:13:42;;;;;;;19.05;11.32;;;;;;;14.76;66.42;101479.53;3557000;40;20061;-75
2021/05/31 06:16:11;;;;;;;18.33;11.13;;;;;;;14.82;66.23;101472.38;3555017;40;20069;-75
2021/05/31 06:18:39;;;;;;;17.27;10.50;;;;;;;14.89;66.74;101480.03;3531224;40;20080;-74
2021/05/31 06:21:07;;;;;;;;;;;;;;;15.00;61.03;101477.09;3558614;40;20053;-75
2021/05/31 06:23:34;;;;;;;18.23;11.02;;;;;;;15.00;65.96;101471.84;3553147;40;20285;-76
2021/05/31 06:26:01;;;;;;;15.57;9.10;;;;;;;15.08;65.34;101469.84;3543553;40;20053;-75
2021/05/31 06:28:30;;;;;;;16.88;8.95;;;;;;;15.14;64.88;101461.78;3544297;40;20285;-75
2021/05/31 06:30:57;;;;;;;12.70;7.30;;;;;;;15.21;64.73;101463.34;3551104;40;20140;-75
2021/05/31 06:33:23;;;;;;;16.80;10.20;;;;;;;15.29;66.02;101469.22;3554664;40;20151;-75
2021/05/31 06:36:01;;;;;;;16.63;9.05;;;;;;;15.41;64.37;101468.00;3551069;40;20054;-76
2021/05/31 06:38:29;;;;;;;11.00;6.22;;;;;;;15.44;64.15;101461.78;3540898;40;20064;-75
2021/05/31 06:40:58;;;;;;;;;;;;;;;15.59;60.86;101461.28;3553852;40;20202;-75
2021/05/31 06:43:25;;;;;;;15.65;9.35;;;;;;;15.61;66.51;101464.72;3556442;40;19961;-75
2021/05/31 06:45:52;;;;;;;19.37;11.90;;;;;;;15.71;66.89;101468.84;3551989;40;20441;-75
2021/05/31 06:48:19;;;;;;;18.85;10.65;;;;;;;15.74;66.17;101459.97;3548840;40;20049;-76
2021/05/31 06:50:48;;;;;;;16.40;10.27;;;;;;;15.89;65.72;101470.03;3547981;40;20123;-75
2021/05/31 06:53:21;;;;;;;15.75;9.80;;;;;;;16.01;64.72;101474.03;3549252;40;20109;-76
2021/05/31 06:55:48;;;;;;;19.00;10.88;;;;;;;16.05;67.04;101475.66;3534938;40;20084;-75
2021/05/31 06:58:21;;;;;;;16.80;10.33;;;;;;;16.16;65.53;101476.16;3554293;40;20050;-75
2021/05/31 07:00:48;;;;;;;16.30;9.63;;;;;;;16.22;66.09;101473.31;3555124;40;20058;-75
2021/05/31 07:03:15;;;;;;;15.77;9.70;;;;;;;16.33;66.31;101471.19;3553541;40;20058;-75
2021/05/31 07:05:42;;;;;;;11.52;6.57;;;;;;;16.41;64.44;101468.25;3545707;40;20143;-75
2021/05/31 07:08:10;;;;;;;11.40;6.97;;;;;;;16.57;64.44;101469.47;3548124;40;20061;-75
2021/05/31 07:10:39;;;;;;;;;;;;;;;16.74;61.01;101466.25;3549312;40;20075;-75
2021/05/31 07:13:07;;;;;;;9.70;5.53;;;;;;;16.80;63.75;101462.53;3551737;40;19939;-75
2021/05/31 07:15:35;;;;;;;;;;;;;;;16.96;60.26;101454.91;3553769;40;20065;-75
2021/05/31 07:18:11;;;;;;;11.35;6.43;;;;;;;17.04;62.26;101452.88;3535905;40;19941;-75
2021/05/31 07:20:38;;;;;;;11.30;6.65;;;;;;;17.07;63.81;101448.31;3537421;40;20088;-75
2021/05/31 07:23:09;;;;;;;11.88;6.68;;;;;;;17.24;61.42;101450.31;3541545;40;20501;-75
2021/05/31 07:25:36;;;;;;;12.25;5.55;;;;;;;17.29;61.07;101453.66;3551943;40;20164;-75
2021/05/31 07:28:04;;;;;;;8.82;5.55;;;;;;;17.42;59.08;101451.38;3542212;40;20151;-75
2021/05/31 07:30:33;;;;;;;10.02;5.32;;;;;;;17.52;59.94;101443.94;3542225;40;20076;-75
2021/05/31 07:33:01;;;;;;;7.22;4.22;;;;;;;17.59;59.65;101440.16;3540291;40;20050;-75
2021/05/31 07:35:28;;;;;;;9.00;4.78;;;;;;;17.68;59.45;101445.06;3536149;40;20474;-75
2021/05/31 07:37:56;;;;;;;10.88;5.57;;;;;;;17.77;57.92;101443.84;3537518;40;20099;-75
2021/05/31 07:40:23;;;;;;;8.40;5.00;;;;;;;17.84;58.57;101446.22;3551823;40;20151;-75
2021/05/31 07:42:52;;;;;;;8.18;4.18;;;;;;;17.91;57.17;101438.88;3543115;40;20515;-75
2021/05/31 07:45:19;;;;;;;6.30;3.78;;;;;;;17.97;56.92;101438.63;3537577;40;20129;-75
2021/05/31 07:47:47;;;;;;;7.80;4.03;;;;;;;18.09;55.11;101447.81;3545022;40;20058;-75
2021/05/31 07:50:16;;;;;;;6.97;4.25;;;;;;;18.13;54.44;101449.41;3539604;40;20310;-75
2021/05/31 07:52:44;;;;;;;7.63;4.03;;;;;;;18.21;55.02;101446.44;3538374;40;20415;-76
2021/05/31 07:55:13;;;;;;;7.55;4.35;;;;;;;18.23;53.41;101434.88;3542558;40;21120;-75
2021/05/31 07:57:42;;;;;;;8.13;4.32;;;;;;;18.24;54.51;101433.94;3534781;40;20062;-75
2021/05/31 08:00:14;;;;;;;8.90;4.18;;;;;;;18.27;53.26;101439.09;3546568;40;20339;-75
2021/05/31 08:02:44;;;;;;;8.93;4.72;;;;;;;18.31;53.57;101435.41;3539772;40;20062;-74
2021/05/31 08:05:13;;;;;;;8.57;4.63;;;;;;;18.34;53.16;101435.25;3552613;40;20065;-75
2021/05/31 08:07:45;;;;;;;8.13;4.40;;;;;;;18.38;53.96;101442.13;3533255;40;20724;-75
2021/05/31 08:10:13;;;;;;;7.72;4.55;;;;;;;18.41;53.78;101436.72;3552606;40;20062;-76
2021/05/31 08:12:42;;;;;;;7.55;4.07;;;;;;;18.46;53.47;101425.09;3544031;40;20500;-75
2021/05/31 08:15:10;;;;;;;7.57;4.60;;;;;;;18.47;53.09;101425.00;3533146;40;20339;-75
2021/05/31 08:17:38;;;;;;;8.48;4.50;;;;;;;18.52;53.08;101417.72;3551958;40;20331;-75
2021/05/31 08:20:07;;;;;;;7.63;4.55;;;;;;;18.57;52.66;101425.47;3547830;40;20078;-75
2021/05/31 08:22:34;;;;;;;7.65;4.57;;;;;;;18.59;53.18;101418.31;3551196;40;20120;-75
2021/05/31 08:25:04;;;;;;;8.55;4.78;;;;;;;18.70;52.62;101421.38;3547674;40;20430;-75
2021/05/31 08:27:32;;;;;;;8.73;4.97;;;;;;;18.75;52.03;101419.38;3537844;40;20057;-76
2021/05/31 08:30:01;;;;;;;7.93;4.95;;;;;;;18.80;51.12;101406.78;3557353;40;20049;-75
2021/05/31 08:32:28;;;;;;;7.90;3.92;;;;;;;18.87;51.48;101408.25;3543075;40;20484;-75
2021/05/31 08:34:57;;;;;;;9.65;5.10;;;;;;;18.96;51.49;101408.72;3543879;40;20058;-75
2021/05/31 08:37:25;;;;;;;7.20;4.20;;;;;;;19.03;52.20;101407.53;3553816;40;20057;-75
2021/05/31 08:39:54;;;;;;;;;;;;;;;19.18;51.97;101399.72;3551438;40;20073;-76
2021/05/31 08:42:21;;;;;;;7.15;3.92;;;;;;;19.21;51.11;101398.72;3559125;40;19941;-75
2021/05/31 08:44:48;;;;;;;7.22;3.90;;;;;;;19.27;50.71;101395.78;3551768;40;20077;-75
2021/05/31 08:47:15;;;;;;;7.45;3.92;;;;;;;19.36;50.10;101405.94;3556420;40;20848;-75
2021/05/31 08:49:42;;;;;;;9.18;4.93;;;;;;;19.45;50.73;101391.38;3552051;40;20045;-75
2021/05/31 08:52:09;;;;;;;8.30;4.10;;;;;;;19.50;49.84;101394.66;3542494;40;20188;-75
2021/05/31 08:54:36;;;;;;;8.00;4.47;;;;;;;19.53;50.39;101385.72;3548570;40;20058;-75
2021/05/31 08:57:03;;;;;;;8.98;5.18;;;;;;;19.55;49.47;101379.41;3556925;40;20116;-75
2021/05/31 08:59:30;;;;;;;7.13;3.85;;;;;;;19.56;49.74;101375.81;3536461;40;20132;-75
2021/05/31 09:01:57;;;;;;;7.82;4.45;;;;;;;19.58;49.91;101378.41;3538904;40;20066;-76
2021/05/31 09:04:24;;;;;;;8.03;4.40;;;;;;;19.62;49.83;101380.84;3540253;40;20060;-75
2021/05/31 09:07:00;;;;;;;7.57;4.15;;;;;;;19.68;50.92;101385.00;3560275;40;20753;-76
2021/05/31 09:09:44;;;;;;;7.88;3.78;;;;;;;19.73;51.03;101369.72;3544900;40;20066;-75
2021/05/31 09:12:13;;;;;;;7.18;3.83;;;;;;;19.72;51.24;101370.66;3538153;40;20061;-75
2021/05/31 09:14:42;;;;;;;7.35;3.97;;;;;;;19.80;50.96;101373.75;3544792;40;20078;-76
2021/05/31 09:17:23;;;;;;;8.25;4.40;;;;;;;19.92;50.86;101378.47;3539112;40;20058;-75
2021/05/31 09:19:49;;;;;;;7.85;4.50;;;;;;;19.98;50.15;101376.44;3532368;40;20093;-75
2021/05/31 09:22:16;;;;;;;8.90;4.77;;;;;;;20.05;48.32;101372.53;3540090;40;20411;-75
2021/05/31 09:24:59;;;;;;;7.80;4.50;;;;;;;20.25;50.03;101367.03;3538858;40;20085;-75
2021/05/31 09:27:28;;;;;;;9.95;4.70;;;;;;;20.44;48.36;101378.41;3540217;40;20288;-75
2021/05/31 09:30:03;;;;;;;10.30;6.03;;;;;;;20.77;48.46;101358.97;3537073;40;20059;-76
2021/05/31 09:32:30;;;;;;;9.75;4.47;;;;;;;21.06;48.49;101359.16;3533558;40;20106;-75
2021/05/31 09:35:12;;;;;;;8.52;5.15;;;;;;;21.46;47.56;101355.97;3541576;40;20393;-75
2021/05/31 09:37:47;;;;;;;12.23;6.10;;;;;;;21.91;47.23;101356.03;3539462;40;20150;-75
2021/05/31 09:40:21;;;;;;;12.50;7.82;;;;;;;22.20;45.92;101360.47;3526062;40;20771;-76
2021/05/31 09:42:52;;;;;;;9.35;5.03;;;;;;;22.47;44.69;101344.63;3537523;40;20136;-76
2021/05/31 09:45:20;;;;;;;7.45;4.43;;;;;;;22.77;44.49;101346.31;3548605;40;20062;-76
2021/05/31 09:47:47;;;;;;;7.78;4.20;;;;;;;23.16;43.51;101352.69;3540129;40;20825;-76
2021/05/31 09:50:26;;;;;;;7.25;4.22;;;;;;;23.66;44.48;101352.03;3532808;40;20061;-75
2021/05/31 09:53:14;;;;;;;9.25;5.13;;;;;;;24.12;45.11;101343.56;3540320;40;20054;-75
2021/05/31 09:55:44;;;;;;;7.75;4.57;;;;;;;24.41;41.59;101343.38;3534723;40;20054;-76
2021/05/31 09:58:17;;;;;;;8.27;4.57;;;;;;;24.76;41.60;101332.84;3538425;40;20065;-76
2021/05/31 10:00:57;;;;;;;7.97;4.70;;;;;;;25.15;40.31;101328.28;3538104;40;20086;-76
2021/05/31 10:03:55;;;;;;;8.02;4.30;;;;;;;25.38;40.56;101330.06;3531180;40;20835;-76
2021/05/31 10:06:20;;;;;;;7.45;4.70;;;;;;;25.84;39.13;101337.31;3544498;40;20164;-76
2021/05/31 10:08:47;;;;;;;7.53;4.65;;;;;;;26.16;37.91;101326.81;3539791;40;20066;-75
2021/05/31 10:11:14;;;;;;;8.52;5.20;;;;;;;26.44;38.01;101330.00;3541989;40;20057;-76
2021/05/31 10:13:43;;;;;;;9.00;4.75;;;;;;;26.69;36.93;101326.22;3547189;40;20077;-76
2021/05/31 10:16:10;;;;;;;7.53;4.60;;;;;;;26.93;38.17;101326.06;3529187;40;20454;-76
2021/05/31 10:18:40;;;;;;;;;;;;;;;27.49;41.11;101332.09;3547432;40;20042;-76
2021/05/31 10:21:12;;;;;;;6.68;4.43;;;;;;;27.62;37.30;101319.34;3549176;40;19949;-76
2021/05/31 10:23:39;;;;;;;9.88;5.63;;;;;;;27.95;36.06;101324.69;3549778;40;20041;-76
2021/05/31 10:26:09;;;;;;;9.02;4.63;;;;;;;28.29;36.35;101314.56;3527794;40;20068;-75
2021/05/31 10:28:41;;;;;;;6.97;4.68;;;;;;;28.70;35.79;101322.50;3544275;40;20058;-76
2021/05/31 10:31:10;;;;;;;7.40;4.72;;;;;;;28.86;33.53;101321.13;3533891;40;20163;-76
2021/05/31 10:33:39;;;;;;;6.80;4.50;;;;;;;28.81;33.73;101312.63;3544413;40;20159;-76
2021/05/31 10:36:17;;;;;;;6.55;4.03;;;;;;;28.78;36.44;101316.41;3546908;40;20087;-76
2021/05/31 10:38:50;;;;;;;7.72;4.45;;;;;;;28.75;34.94;101321.25;3535544;40;20061;-75
2021/05/31 10:41:23;;;;;;;7.65;5.00;;;;;;;29.00;35.96;101312.69;3549999;40;20104;-76
2021/05/31 10:43:55;;;;;;;6.97;4.80;;;;;;;28.96;34.91;101316.66;3530310;40;20457;-76
2021/05/31 10:46:31;;;;;;;8.15;5.40;;;;;;;29.10;35.55;101310.88;3550083;40;20080;-76
2021/05/31 10:48:58;;;;;;;7.45;5.10;;;;;;;29.23;33.72;101307.03;3535683;40;20065;-76
2021/05/31 10:51:29;;;;;;;8.30;4.93;;;;;;;29.48;33.81;101309.16;3543256;40;20049;-76
2021/05/31 10:54:07;;;;;;;8.55;5.70;;;;;;;29.79;34.55;101309.00;3541873;40;20374;-76
2021/05/31 10:56:34;;;;;;;8.90;5.53;;;;;;;29.88;33.31;101303.59;3540588;40;20121;-76
2021/05/31 10:59:01;;;;;;;7.13;4.75;;;;;;;30.12;33.24;101300.44;3546019;40;20054;-76
2021/05/31 11:01:28;;;;;;;7.00;4.80;;;;;;;30.48;31.21;101295.19;3544825;40;20062;-76
2021/05/31 11:04:03;;;;;;;9.27;5.50;;;;;;;30.87;31.97;101292.25;3546788;40;20056;-76
2021/05/31 11:06:37;;;;;;;7.03;4.97;;;;;;;31.02;32.38;101298.84;3533122;40;20117;-76
2021/05/31 11:09:15;;;;;;;7.80;5.30;;;;;;;31.08;32.19;101282.06;3525391;40;20304;-76
2021/05/31 11:11:56;;;;;;;8.00;5.35;;;;;;;31.20;32.20;101279.97;3525662;40;22607;-76
2021/05/31 11:14:43;;;;;;;8.15;5.20;;;;;;;31.30;33.22;101274.50;3533734;40;20481;-76
2021/05/31 11:17:15;;;;;;;7.53;4.85;;;;;;;31.34;31.09;101273.22;3524816;40;20064;-76
2021/05/31 11:19:47;;;;;;;6.38;4.30;;;;;;;31.21;31.48;101282.50;3543232;40;20085;-76
2021/05/31 11:22:21;;;;;;;8.15;4.85;;;;;;;30.99;31.34;101269.47;3555543;40;20053;-76
2021/05/31 11:24:49;;;;;;;7.45;4.25;;;;;;;30.80;31.69;101272.31;3533448;40;20062;-76
2021/05/31 11:27:16;;;;;;;8.25;4.63;;;;;;;30.43;32.08;101268.69;3547950;40;20906;-76
2021/05/31 11:29:43;;;;;;;11.68;5.32;;;;;;;30.14;32.44;101260.72;3546826;40;20504;-75
2021/05/31 11:32:11;;;;;;;8.98;4.65;;;;;;;29.93;32.46;101269.00;3533550;40;20065;-76
2021/05/31 11:34:38;;;;;;;9.00;4.85;;;;;;;29.53;33.33;101261.13;3541573;40;20694;-76
2021/05/31 11:37:05;;;;;;;7.57;4.28;;;;;;;29.14;34.05;101263.84;3549202;40;20092;-76
2021/05/31 11:39:33;;;;;;;6.85;4.15;;;;;;;28.86;34.87;101261.97;3538281;40;20166;-75
2021/05/31 11:42:00;;;;;;;7.72;4.40;;;;;;;28.62;34.71;101249.75;3540367;40;20058;-76
2021/05/31 11:44:29;;;;;;;8.32;3.92;;;;;;;28.43;35.40;101255.09;3545165;40;20188;-75
2021/05/31 11:47:02;;;;;;;7.60;4.05;;;;;;;28.25;35.39;101252.19;3543200;40;20127;-75
2021/05/31 11:49:35;;;;;;;6.35;3.67;;;;;;;27.98;35.37;101249.22;3534261;40;20140;-75